Terminal Aerodrome Forecast
Issued by NWS

Home | Current Version | Previous Version | Text Only | Print | Product List | Glossary Off
Versions: 1 2 3 4 5 6 7 8 9 10 11 12

000
FTUS41 KCLE 261135
TAFFDY
TAF
KFDY 261135Z 2612/2712 VRB03KT 5SM BR SCT100
     FM261300 36002KT P6SM SCT020 BKN040
      TEMPO 2613/2617 BKN020
     FM261700 06005KT P6SM SCT035 BKN250
     FM270000 03005KT P6SM SKC=

USA.gov is the U.S. government's official web portal to all federal, state and local government web resources and services.